sensor_id;sensor_type;location;lat;lon;timestamp;pressure;altitude;pressure_sealevel;temperature;humidity
77897;BME280;67092;64.282;21.056;2023-03-01T00:01:41;101639.55;;;21.33;20.60
77897;BME280;67092;64.282;21.056;2023-03-01T00:04:07;101633.70;;;21.52;20.36
77897;BME280;67092;64.282;21.056;2023-03-01T00:06:33;101624.31;;;20.96;20.59
77897;BME280;67092;64.282;21.056;2023-03-01T00:08:59;101622.11;;;20.95;20.57
77897;BME280;67092;64.282;21.056;2023-03-01T00:11:26;101615.44;;;21.56;20.32
77897;BME280;67092;64.282;21.056;2023-03-01T00:13:52;101625.58;;;21.33;20.50
77897;BME280;67092;64.282;21.056;2023-03-01T00:16:20;101617.75;;;20.97;20.67
77897;BME280;67092;64.282;21.056;2023-03-01T00:18:41;101622.25;;;20.89;20.67
77897;BME280;67092;64.282;21.056;2023-03-01T00:21:07;101617.03;;;21.35;20.41
77897;BME280;67092;64.282;21.056;2023-03-01T00:23:34;101617.28;;;21.14;20.63
77897;BME280;67092;64.282;21.056;2023-03-01T00:25:58;101612.33;;;20.89;20.80
77897;BME280;67092;64.282;21.056;2023-03-01T00:28:24;101611.76;;;20.90;20.69
77897;BME280;67092;64.282;21.056;2023-03-01T00:30:49;101608.84;;;21.34;20.51
77897;BME280;67092;64.282;21.056;2023-03-01T00:33:15;101609.40;;;21.16;20.61
77897;BME280;67092;64.282;21.056;2023-03-01T00:35:41;101608.63;;;21.31;20.43
77897;BME280;67092;64.282;21.056;2023-03-01T00:38:06;101612.10;;;21.02;20.71
77897;BME280;67092;64.282;21.056;2023-03-01T00:40:34;101605.62;;;20.72;20.80
77897;BME280;67092;64.282;21.056;2023-03-01T00:42:58;101604.75;;;20.91;20.78
77897;BME280;67092;64.282;21.056;2023-03-01T00:45:23;101599.67;;;21.30;20.50
77897;BME280;67092;64.282;21.056;2023-03-01T00:47:49;101595.07;;;21.37;20.53
77897;BME280;67092;64.282;21.056;2023-03-01T00:50:15;101593.20;;;21.04;20.71
77897;BME280;67092;64.282;21.056;2023-03-01T00:52:40;101590.33;;;21.10;20.66
77897;BME280;67092;64.282;21.056;2023-03-01T00:55:07;101584.83;;;20.93;20.82
77897;BME280;67092;64.282;21.056;2023-03-01T00:57:31;101586.50;;;20.76;20.73
77897;BME280;67092;64.282;21.056;2023-03-01T00:59:57;101578.52;;;21.29;20.54
77897;BME280;67092;64.282;21.056;2023-03-01T01:02:23;101571.76;;;20.54;21.10
77897;BME280;67092;64.282;21.056;2023-03-01T01:04:49;101564.66;;;20.50;21.10
77897;BME280;67092;64.282;21.056;2023-03-01T01:07:14;101567.28;;;20.75;20.52
77897;BME280;67092;64.282;21.056;2023-03-01T01:09:40;101556.44;;;21.01;20.73
77897;BME280;67092;64.282;21.056;2023-03-01T01:12:06;101552.74;;;21.09;20.50
77897;BME280;67092;64.282;21.056;2023-03-01T01:14:31;101545.25;;;20.86;20.81
77897;BME280;67092;64.282;21.056;2023-03-01T01:16:57;101536.83;;;21.07;20.71
77897;BME280;67092;64.282;21.056;2023-03-01T01:19:23;101542.46;;;21.17;20.59
77897;BME280;67092;64.282;21.056;2023-03-01T01:21:48;101549.16;;;21.20;20.61
77897;BME280;67092;64.282;21.056;2023-03-01T01:24:14;101547.00;;;21.24;20.79
77897;BME280;67092;64.282;21.056;2023-03-01T01:26:39;101549.57;;;20.78;20.93
77897;BME280;67092;64.282;21.056;2023-03-01T01:29:05;101541.74;;;20.51;20.95
77897;BME280;67092;64.282;21.056;2023-03-01T01:31:31;101542.23;;;20.88;20.89
77897;BME280;67092;64.282;21.056;2023-03-01T01:33:57;101543.90;;;20.80;20.98
77897;BME280;67092;64.282;21.056;2023-03-01T01:36:22;101545.46;;;20.65;21.10
77897;BME280;67092;64.282;21.056;2023-03-01T01:38:47;101538.38;;;20.54;21.10
77897;BME280;67092;64.282;21.056;2023-03-01T01:41:14;101528.53;;;20.89;20.84
77897;BME280;67092;64.282;21.056;2023-03-01T01:43:40;101524.20;;;21.19;20.62
77897;BME280;67092;64.282;21.056;2023-03-01T01:46:06;101521.55;;;21.02;20.77
77897;BME280;67092;64.282;21.056;2023-03-01T01:48:37;101521.34;;;20.97;20.80
77897;BME280;67092;64.282;21.056;2023-03-01T01:50:59;101513.85;;;20.69;21.01
77897;BME280;67092;64.282;21.056;2023-03-01T01:53:21;101509.43;;;20.97;20.80
77897;BME280;67092;64.282;21.056;2023-03-01T01:55:50;101498.24;;;20.73;21.00
77897;BME280;67092;64.282;21.056;2023-03-01T01:58:15;101501.75;;;20.66;20.81
77897;BME280;67092;64.282;21.056;2023-03-01T02:00:38;101500.62;;;20.85;20.88
77897;BME280;67092;64.282;21.056;2023-03-01T02:03:18;101502.46;;;20.72;20.95
77897;BME280;67092;64.282;21.056;2023-03-01T02:05:36;101499.52;;;20.50;21.18
77897;BME280;67092;64.282;21.056;2023-03-01T02:07:56;101500.11;;;20.67;20.99
77897;BME280;67092;64.282;21.056;2023-03-01T02:10:21;101492.32;;;20.61;21.24
77897;BME280;67092;64.282;21.056;2023-03-01T02:12:46;101491.37;;;20.56;21.11
77897;BME280;67092;64.282;21.056;2023-03-01T02:15:12;101486.81;;;20.48;21.13
77897;BME280;67092;64.282;21.056;2023-03-01T02:17:37;101481.47;;;20.54;21.07
77897;BME280;67092;64.282;21.056;2023-03-01T02:20:12;101478.98;;;20.46;21.21
77897;BME280;67092;64.282;21.056;2023-03-01T02:22:30;101469.05;;;20.54;21.10
77897;BME280;67092;64.282;21.056;2023-03-01T02:25:06;101468.25;;;20.83;21.10
77897;BME280;67092;64.282;21.056;2023-03-01T02:27:23;101462.64;;;21.04;20.62
77897;BME280;67092;64.282;21.056;2023-03-01T02:29:46;101460.92;;;20.59;21.00
77897;BME280;67092;64.282;21.056;2023-03-01T02:32:12;101459.91;;;20.70;21.06
77897;BME280;67092;64.282;21.056;2023-03-01T02:34:37;101456.64;;;20.94;20.75
77897;BME280;67092;64.282;21.056;2023-03-01T02:37:05;101452.02;;;20.80;20.85
77897;BME280;67092;64.282;21.056;2023-03-01T02:39:33;101445.53;;;21.01;20.82
77897;BME280;67092;64.282;21.056;2023-03-01T02:41:55;101449.21;;;20.78;20.88
77897;BME280;67092;64.282;21.056;2023-03-01T02:44:20;101441.93;;;20.97;20.85
77897;BME280;67092;64.282;21.056;2023-03-01T02:46:47;101439.13;;;20.53;21.00
77897;BME280;67092;64.282;21.056;2023-03-01T02:49:19;101433.46;;;20.87;20.71
77897;BME280;67092;64.282;21.056;2023-03-01T02:51:45;101433.83;;;20.65;20.81
77897;BME280;67092;64.282;21.056;2023-03-01T02:54:10;101426.70;;;20.54;20.86
77897;BME280;67092;64.282;21.056;2023-03-01T02:56:28;101431.38;;;20.71;20.77
77897;BME280;67092;64.282;21.056;2023-03-01T02:58:53;101426.05;;;20.56;20.86
77897;BME280;67092;64.282;21.056;2023-03-01T03:01:20;101422.87;;;20.88;20.74
77897;BME280;67092;64.282;21.056;2023-03-01T03:03:45;101424.04;;;21.03;20.61
77897;BME280;67092;64.282;21.056;2023-03-01T03:06:10;101420.69;;;21.28;20.18
77897;BME280;67092;64.282;21.056;2023-03-01T03:08:36;101418.52;;;20.50;20.72
77897;BME280;67092;64.282;21.056;2023-03-01T03:11:02;101412.89;;;20.64;20.62
77897;BME280;67092;64.282;21.056;2023-03-01T03:13:27;101408.79;;;21.12;20.43
77897;BME280;67092;64.282;21.056;2023-03-01T03:15:53;101405.03;;;20.42;20.94
77897;BME280;67092;64.282;21.056;2023-03-01T03:18:18;101411.68;;;20.73;20.83
77897;BME280;67092;64.282;21.056;2023-03-01T03:20:44;101406.87;;;20.86;20.45
77897;BME280;67092;64.282;21.056;2023-03-01T03:23:11;101409.91;;;20.89;20.38
77897;BME280;67092;64.282;21.056;2023-03-01T03:25:35;101406.57;;;21.12;20.24
77897;BME280;67092;64.282;21.056;2023-03-01T03:28:01;101405.42;;;20.82;20.52
77897;BME280;67092;64.282;21.056;2023-03-01T03:30:28;101402.60;;;20.98;20.36
77897;BME280;67092;64.282;21.056;2023-03-01T03:32:52;101409.04;;;20.65;20.61
77897;BME280;67092;64.282;21.056;2023-03-01T03:35:19;101414.13;;;21.09;20.28
77897;BME280;67092;64.282;21.056;2023-03-01T03:37:44;101411.58;;;20.89;20.55
77897;BME280;67092;64.282;21.056;2023-03-01T03:40:10;101407.28;;;20.75;20.60
77897;BME280;67092;64.282;21.056;2023-03-01T03:42:35;101408.53;;;20.85;20.64
77897;BME280;67092;64.282;21.056;2023-03-01T03:45:00;101400.83;;;20.72;20.77
77897;BME280;67092;64.282;21.056;2023-03-01T03:47:26;101410.55;;;20.94;20.41
77897;BME280;67092;64.282;21.056;2023-03-01T03:49:52;101409.57;;;20.53;20.72
77897;BME280;67092;64.282;21.056;2023-03-01T03:52:17;101411.16;;;20.44;20.80
77897;BME280;67092;64.282;21.056;2023-03-01T03:54:43;101414.86;;;21.02;20.50
77897;BME280;67092;64.282;21.056;2023-03-01T03:57:08;101410.44;;;20.56;20.67
77897;BME280;67092;64.282;21.056;2023-03-01T03:59:34;101406.49;;;20.36;20.88
77897;BME280;67092;64.282;21.056;2023-03-01T04:02:00;101406.25;;;20.88;20.47
77897;BME280;67092;64.282;21.056;2023-03-01T04:04:25;101397.85;;;20.53;20.79
77897;BME280;67092;64.282;21.056;2023-03-01T04:06:51;101399.84;;;20.57;20.73
77897;BME280;67092;64.282;21.056;2023-03-01T04:09:17;101398.49;;;20.19;20.87
77897;BME280;67092;64.282;21.056;2023-03-01T04:11:42;101397.11;;;20.33;21.00
77897;BME280;67092;64.282;21.056;2023-03-01T04:14:08;101393.06;;;20.31;21.19
77897;BME280;67092;64.282;21.056;2023-03-01T04:16:33;101391.16;;;20.43;20.88
77897;BME280;67092;64.282;21.056;2023-03-01T04:18:59;101379.92;;;20.79;20.58
77897;BME280;67092;64.282;21.056;2023-03-01T04:21:25;101388.81;;;20.96;20.85
77897;BME280;67092;64.282;21.056;2023-03-01T04:23:51;101389.76;;;20.61;20.91
77897;BME280;67092;64.282;21.056;2023-03-01T04:26:16;101381.93;;;20.04;21.17
77897;BME280;67092;64.282;21.056;2023-03-01T04:28:42;101380.99;;;20.43;20.89
77897;BME280;67092;64.282;21.056;2023-03-01T04:31:09;101379.11;;;20.67;20.67
77897;BME280;67092;64.282;21.056;2023-03-01T04:33:33;101371.61;;;20.59;20.74
77897;BME280;67092;64.282;21.056;2023-03-01T04:35:59;101368.42;;;20.49;20.84
77897;BME280;67092;64.282;21.056;2023-03-01T04:38:24;101367.92;;;20.38;20.89
77897;BME280;67092;64.282;21.056;2023-03-01T04:40:50;101363.79;;;20.60;20.68
77897;BME280;67092;64.282;21.056;2023-03-01T04:43:15;101365.94;;;20.39;20.82
77897;BME280;67092;64.282;21.056;2023-03-01T04:45:41;101366.63;;;20.92;20.61
77897;BME280;67092;64.282;21.056;2023-03-01T04:48:07;101365.90;;;20.60;20.69
77897;BME280;67092;64.282;21.056;2023-03-01T04:50:33;101353.87;;;20.80;20.70
77897;BME280;67092;64.282;21.056;2023-03-01T04:52:58;101356.07;;;20.67;20.84
77897;BME280;67092;64.282;21.056;2023-03-01T04:55:24;101357.41;;;20.42;21.00
77897;BME280;67092;64.282;21.056;2023-03-01T04:57:49;101357.58;;;20.58;20.69
77897;BME280;67092;64.282;21.056;2023-03-01T05:00:15;101356.56;;;20.62;20.71
77897;BME280;67092;64.282;21.056;2023-03-01T05:02:40;101352.58;;;20.30;20.93
77897;BME280;67092;64.282;21.056;2023-03-01T05:05:07;101356.80;;;20.48;20.79
77897;BME280;67092;64.282;21.056;2023-03-01T05:07:31;101354.05;;;20.63;20.84
77897;BME280;67092;64.282;21.056;2023-03-01T05:09:57;101356.42;;;20.35;20.83
77897;BME280;67092;64.282;21.056;2023-03-01T05:12:23;101357.29;;;20.07;21.16
77897;BME280;67092;64.282;21.056;2023-03-01T05:14:48;101359.92;;;20.62;20.75
77897;BME280;67092;64.282;21.056;2023-03-01T05:17:14;101349.17;;;20.84;20.78
77897;BME280;67092;64.282;21.056;2023-03-01T05:19:40;101351.45;;;20.29;21.06
77897;BME280;67092;64.282;21.056;2023-03-01T05:22:05;101346.31;;;21.12;20.59
77897;BME280;67092;64.282;21.056;2023-03-01T05:24:33;101344.85;;;20.54;20.72
77897;BME280;67092;64.282;21.056;2023-03-01T05:26:57;101346.16;;;20.64;20.79
77897;BME280;67092;64.282;21.056;2023-03-01T05:29:23;101342.45;;;20.49;20.88
77897;BME280;67092;64.282;21.056;2023-03-01T05:31:48;101345.88;;;20.67;20.90
77897;BME280;67092;64.282;21.056;2023-03-01T05:34:14;101349.89;;;20.55;20.83
77897;BME280;67092;64.282;21.056;2023-03-01T05:36:39;101354.11;;;21.04;21.04
77897;BME280;67092;64.282;21.056;2023-03-01T05:39:05;101355.19;;;20.57;20.83
77897;BME280;67092;64.282;21.056;2023-03-01T05:41:30;101355.72;;;21.01;20.75
77897;BME280;67092;64.282;21.056;2023-03-01T05:43:56;101367.63;;;21.07;20.72
77897;BME280;67092;64.282;21.056;2023-03-01T05:46:22;101367.82;;;20.73;20.94
77897;BME280;67092;64.282;21.056;2023-03-01T05:48:47;101364.35;;;20.59;20.70
77897;BME280;67092;64.282;21.056;2023-03-01T05:51:13;101370.12;;;21.15;20.63
77897;BME280;67092;64.282;21.056;2023-03-01T05:53:39;101367.63;;;20.89;20.65
77897;BME280;67092;64.282;21.056;2023-03-01T05:56:05;101373.12;;;21.13;20.60
77897;BME280;67092;64.282;21.056;2023-03-01T05:58:30;101366.27;;;20.53;20.90
77897;BME280;67092;64.282;21.056;2023-03-01T06:00:55;101371.69;;;20.43;21.02
77897;BME280;67092;64.282;21.056;2023-03-01T06:03:21;101370.31;;;20.96;20.87
77897;BME280;67092;64.282;21.056;2023-03-01T06:05:47;101376.24;;;20.46;21.12
77897;BME280;67092;64.282;21.056;2023-03-01T06:08:13;101372.58;;;20.81;21.01
77897;BME280;67092;64.282;21.056;2023-03-01T06:10:38;101373.98;;;20.83;20.97
77897;BME280;67092;64.282;21.056;2023-03-01T06:13:04;101375.74;;;20.49;21.19
77897;BME280;67092;64.282;21.056;2023-03-01T06:15:29;101377.82;;;21.12;20.88
77897;BME280;67092;64.282;21.056;2023-03-01T06:17:56;101372.23;;;20.65;21.16
77897;BME280;67092;64.282;21.056;2023-03-01T06:20:22;101374.98;;;20.80;21.26
77897;BME280;67092;64.282;21.056;2023-03-01T06:22:47;101376.57;;;20.89;20.98
77897;BME280;67092;64.282;21.056;2023-03-01T06:25:13;101377.84;;;21.42;20.81
77897;BME280;67092;64.282;21.056;2023-03-01T06:27:37;101377.51;;;21.40;20.64
77897;BME280;67092;64.282;21.056;2023-03-01T06:30:04;101379.63;;;20.99;20.99
77897;BME280;67092;64.282;21.056;2023-03-01T06:32:29;101381.85;;;20.65;21.16
77897;BME280;67092;64.282;21.056;2023-03-01T06:34:54;101384.47;;;20.99;21.08
77897;BME280;67092;64.282;21.056;2023-03-01T06:37:20;101385.81;;;20.89;20.89
77897;BME280;67092;64.282;21.056;2023-03-01T06:39:45;101385.75;;;21.25;20.74
77897;BME280;67092;64.282;21.056;2023-03-01T06:42:11;101385.79;;;21.09;20.81
77897;BME280;67092;64.282;21.056;2023-03-01T06:44:37;101391.28;;;20.58;21.21
77897;BME280;67092;64.282;21.056;2023-03-01T06:47:03;101394.36;;;20.61;21.11
77897;BME280;67092;64.282;21.056;2023-03-01T06:49:28;101389.45;;;20.67;20.86
77897;BME280;67092;64.282;21.056;2023-03-01T06:51:54;101387.03;;;20.76;20.78
77897;BME280;67092;64.282;21.056;2023-03-01T06:54:19;101383.52;;;20.57;20.89
77897;BME280;67092;64.282;21.056;2023-03-01T06:56:47;101385.13;;;20.93;20.61
77897;BME280;67092;64.282;21.056;2023-03-01T06:59:10;101384.59;;;21.04;20.67
77897;BME280;67092;64.282;21.056;2023-03-01T07:01:36;101387.48;;;20.64;20.93
77897;BME280;67092;64.282;21.056;2023-03-01T07:04:02;101384.65;;;20.56;20.80
77897;BME280;67092;64.282;21.056;2023-03-01T07:06:27;101386.06;;;21.00;20.60
77897;BME280;67092;64.282;21.056;2023-03-01T07:08:53;101382.34;;;20.60;20.71
77897;BME280;67092;64.282;21.056;2023-03-01T07:11:19;101382.79;;;20.75;20.72
77897;BME280;67092;64.282;21.056;2023-03-01T07:13:44;101382.40;;;20.46;20.74
77897;BME280;67092;64.282;21.056;2023-03-01T07:16:10;101377.91;;;20.46;20.71
77897;BME280;67092;64.282;21.056;2023-03-01T07:18:36;101377.80;;;20.59;20.58
77897;BME280;67092;64.282;21.056;2023-03-01T07:21:05;101375.95;;;20.54;20.60
77897;BME280;67092;64.282;21.056;2023-03-01T07:23:27;101379.53;;;20.62;20.54
77897;BME280;67092;64.282;21.056;2023-03-01T07:25:53;101381.99;;;20.72;20.63
77897;BME280;67092;64.282;21.056;2023-03-01T07:28:18;101383.25;;;20.81;20.34
77897;BME280;67092;64.282;21.056;2023-03-01T07:30:44;101380.31;;;20.59;20.65
77897;BME280;67092;64.282;21.056;2023-03-01T07:33:09;101381.11;;;20.69;20.40
77897;BME280;67092;64.282;21.056;2023-03-01T07:35:35;101382.34;;;20.29;20.88
77897;BME280;67092;64.282;21.056;2023-03-01T07:38:01;101386.80;;;20.45;20.55
77897;BME280;67092;64.282;21.056;2023-03-01T07:40:26;101379.28;;;20.95;20.33
77897;BME280;67092;64.282;21.056;2023-03-01T07:42:55;101381.52;;;20.53;20.42
77897;BME280;67092;64.282;21.056;2023-03-01T07:45:18;101382.19;;;20.43;20.45
77897;BME280;67092;64.282;21.056;2023-03-01T07:47:43;101376.00;;;20.58;20.34
77897;BME280;67092;64.282;21.056;2023-03-01T07:50:10;101374.91;;;20.51;20.36
77897;BME280;67092;64.282;21.056;2023-03-01T07:52:34;101378.06;;;21.06;20.10
77897;BME280;67092;64.282;21.056;2023-03-01T07:55:00;101378.03;;;20.63;20.22
77897;BME280;67092;64.282;21.056;2023-03-01T07:57:26;101376.80;;;20.92;20.20
77897;BME280;67092;64.282;21.056;2023-03-01T07:59:52;101378.39;;;20.60;20.44
77897;BME280;67092;64.282;21.056;2023-03-01T08:02:17;101374.67;;;20.53;20.25
77897;BME280;67092;64.282;21.056;2023-03-01T08:04:43;101375.34;;;20.29;20.49
77897;BME280;67092;64.282;21.056;2023-03-01T08:07:08;101375.34;;;20.40;20.55
77897;BME280;67092;64.282;21.056;2023-03-01T08:09:34;101373.64;;;21.14;19.92
77897;BME280;67092;64.282;21.056;2023-03-01T08:11:59;101378.84;;;20.19;20.46
77897;BME280;67092;64.282;21.056;2023-03-01T08:14:25;101374.87;;;20.34;20.33
77897;BME280;67092;64.282;21.056;2023-03-01T08:16:51;101381.55;;;20.80;19.91
77897;BME280;67092;64.282;21.056;2023-03-01T08:19:17;101381.37;;;20.91;20.04
77897;BME280;67092;64.282;21.056;2023-03-01T08:21:42;101377.57;;;20.73;19.99
77897;BME280;67092;64.282;21.056;2023-03-01T08:24:08;101380.47;;;20.71;19.99
77897;BME280;67092;64.282;21.056;2023-03-01T08:26:34;101379.03;;;20.71;20.18
77897;BME280;67092;64.282;21.056;2023-03-01T08:29:00;101380.19;;;20.95;19.95
77897;BME280;67092;64.282;21.056;2023-03-01T08:31:27;101381.34;;;20.74;19.91
77897;BME280;67092;64.282;21.056;2023-03-01T08:33:53;101385.01;;;21.06;19.85
77897;BME280;67092;64.282;21.056;2023-03-01T08:36:16;101390.23;;;20.79;20.08
77897;BME280;67092;64.282;21.056;2023-03-01T08:38:42;101392.93;;;20.72;20.13
77897;BME280;67092;64.282;21.056;2023-03-01T08:41:07;101391.57;;;20.56;20.20
77897;BME280;67092;64.282;21.056;2023-03-01T08:43:33;101390.86;;;20.67;20.12
77897;BME280;67092;64.282;21.056;2023-03-01T08:45:58;101391.13;;;20.58;20.20
77897;BME280;67092;64.282;21.056;2023-03-01T08:48:24;101391.90;;;20.30;20.25
77897;BME280;67092;64.282;21.056;2023-03-01T08:50:50;101390.60;;;20.73;20.05
77897;BME280;67092;64.282;21.056;2023-03-01T08:53:15;101388.49;;;20.52;20.25
77897;BME280;67092;64.282;21.056;2023-03-01T08:55:41;101385.12;;;20.46;20.07
77897;BME280;67092;64.282;21.056;2023-03-01T08:58:06;101389.43;;;20.89;19.95
77897;BME280;67092;64.282;21.056;2023-03-01T09:00:32;101386.46;;;20.61;20.12
77897;BME280;67092;64.282;21.056;2023-03-01T09:02:58;101378.94;;;20.78;19.81
77897;BME280;67092;64.282;21.056;2023-03-01T09:05:23;101382.71;;;20.51;19.99
77897;BME280;67092;64.282;21.056;2023-03-01T09:07:49;101381.95;;;20.61;20.09
77897;BME280;67092;64.282;21.056;2023-03-01T09:10:15;101372.88;;;20.92;19.85
77897;BME280;67092;64.282;21.056;2023-03-01T09:12:40;101372.29;;;20.66;20.07
77897;BME280;67092;64.282;21.056;2023-03-01T09:15:07;101371.57;;;20.40;20.07
77897;BME280;67092;64.282;21.056;2023-03-01T09:17:31;101369.84;;;20.72;20.00
77897;BME280;67092;64.282;21.056;2023-03-01T09:19:57;101373.38;;;20.86;19.85
77897;BME280;67092;64.282;21.056;2023-03-01T09:22:23;101375.13;;;20.86;19.84
77897;BME280;67092;64.282;21.056;2023-03-01T09:24:48;101385.59;;;20.18;20.15
77897;BME280;67092;64.282;21.056;2023-03-01T09:27:14;101386.39;;;20.65;20.00
77897;BME280;67092;64.282;21.056;2023-03-01T09:29:40;101388.92;;;20.39;19.98
77897;BME280;67092;64.282;21.056;2023-03-01T09:32:05;101387.30;;;20.68;19.94
77897;BME280;67092;64.282;21.056;2023-03-01T09:34:31;101386.73;;;20.69;19.90
77897;BME280;67092;64.282;21.056;2023-03-01T09:36:57;101386.00;;;20.25;20.21
77897;BME280;67092;64.282;21.056;2023-03-01T09:39:22;101384.02;;;20.70;19.67
77897;BME280;67092;64.282;21.056;2023-03-01T09:41:53;101390.24;;;20.52;19.98
77897;BME280;67092;64.282;21.056;2023-03-01T09:44:26;101387.25;;;20.05;20.14
77897;BME280;67092;64.282;21.056;2023-03-01T09:46:43;101388.80;;;20.62;19.89
77897;BME280;67092;64.282;21.056;2023-03-01T09:49:10;101386.11;;;20.79;19.75
77897;BME280;67092;64.282;21.056;2023-03-01T09:51:32;101392.33;;;20.33;19.94
77897;BME280;67092;64.282;21.056;2023-03-01T09:53:56;101390.50;;;20.35;20.05
77897;BME280;67092;64.282;21.056;2023-03-01T09:56:28;101388.46;;;20.85;19.67
77897;BME280;67092;64.282;21.056;2023-03-01T09:58:53;101388.60;;;20.56;19.86
77897;BME280;67092;64.282;21.056;2023-03-01T10:01:23;101389.13;;;20.50;19.93
77897;BME280;67092;64.282;21.056;2023-03-01T10:03:43;101377.88;;;20.20;20.15
77897;BME280;67092;64.282;21.056;2023-03-01T10:06:10;101372.14;;;20.54;19.85
77897;BME280;67092;64.282;21.056;2023-03-01T10:08:35;101372.01;;;19.98;19.87
77897;BME280;67092;64.282;21.056;2023-03-01T10:10:55;101370.18;;;20.50;19.69
77897;BME280;67092;64.282;21.056;2023-03-01T10:13:24;101377.59;;;20.70;19.50
77897;BME280;67092;64.282;21.056;2023-03-01T10:15:50;101388.28;;;20.78;19.62
77897;BME280;67092;64.282;21.056;2023-03-01T10:18:15;101395.10;;;20.33;19.81
77897;BME280;67092;64.282;21.056;2023-03-01T10:20:45;101398.48;;;20.65;19.72
77897;BME280;67092;64.282;21.056;2023-03-01T10:23:04;101404.76;;;20.52;19.79
77897;BME280;67092;64.282;21.056;2023-03-01T10:25:45;101407.49;;;20.46;19.86
77897;BME280;67092;64.282;21.056;2023-03-01T10:28:02;101404.03;;;20.54;19.58
77897;BME280;67092;64.282;21.056;2023-03-01T10:30:27;101405.39;;;20.52;19.59
77897;BME280;67092;64.282;21.056;2023-03-01T10:32:48;101400.47;;;20.83;19.71
77897;BME280;67092;64.282;21.056;2023-03-01T10:35:17;101397.44;;;20.21;19.84
77897;BME280;67092;64.282;21.056;2023-03-01T10:37:46;101398.94;;;20.51;19.72
77897;BME280;67092;64.282;21.056;2023-03-01T10:40:06;101391.52;;;20.80;19.33
77897;BME280;67092;64.282;21.056;2023-03-01T10:42:31;101390.27;;;20.96;19.37
77897;BME280;67092;64.282;21.056;2023-03-01T10:44:54;101391.45;;;20.70;19.59
77897;BME280;67092;64.282;21.056;2023-03-01T10:47:23;101387.36;;;20.46;19.73
77897;BME280;67092;64.282;21.056;2023-03-01T10:49:53;101391.53;;;20.43;19.59
77897;BME280;67092;64.282;21.056;2023-03-01T10:52:18;101396.90;;;20.79;19.45
77897;BME280;67092;64.282;21.056;2023-03-01T10:54:37;101398.12;;;20.58;19.41
77897;BME280;67092;64.282;21.056;2023-03-01T10:57:04;101401.58;;;20.88;19.37
77897;BME280;67092;64.282;21.056;2023-03-01T10:59:29;101404.26;;;20.74;19.33
77897;BME280;67092;64.282;21.056;2023-03-01T11:04:19;101407.84;;;20.62;19.56
77897;BME280;67092;64.282;21.056;2023-03-01T11:06:57;101403.08;;;20.51;19.62
77897;BME280;67092;64.282;21.056;2023-03-01T11:09:15;101405.58;;;20.48;19.49
77897;BME280;67092;64.282;21.056;2023-03-01T11:11:36;101409.96;;;20.61;19.41
77897;BME280;67092;64.282;21.056;2023-03-01T11:14:05;101414.48;;;20.89;19.39
77897;BME280;67092;64.282;21.056;2023-03-01T11:16:33;101415.40;;;20.74;19.67
77897;BME280;67092;64.282;21.056;2023-03-01T11:18:58;101415.62;;;20.64;19.37
77897;BME280;67092;64.282;21.056;2023-03-01T11:21:18;101412.00;;;20.59;19.41
77897;BME280;67092;64.282;21.056;2023-03-01T11:23:45;101412.50;;;20.78;19.38
77897;BME280;67092;64.282;21.056;2023-03-01T11:26:10;101416.86;;;20.59;19.58
77897;BME280;67092;64.282;21.056;2023-03-01T11:28:37;101422.94;;;20.64;19.39
77897;BME280;67092;64.282;21.056;2023-03-01T11:31:05;101428.37;;;20.88;19.56
77897;BME280;67092;64.282;21.056;2023-03-01T11:33:35;101427.38;;;20.71;19.49
77897;BME280;67092;64.282;21.056;2023-03-01T11:35:57;101431.97;;;21.01;19.24
77897;BME280;67092;64.282;21.056;2023-03-01T11:38:22;101432.73;;;20.52;19.44
77897;BME280;67092;64.282;21.056;2023-03-01T11:40:49;101436.08;;;21.01;19.42
77897;BME280;67092;64.282;21.056;2023-03-01T11:43:17;101433.57;;;20.75;19.43
77897;BME280;67092;64.282;21.056;2023-03-01T11:45:46;101428.70;;;20.62;19.37
77897;BME280;67092;64.282;21.056;2023-03-01T11:48:11;101431.14;;;20.71;19.50
77897;BME280;67092;64.282;21.056;2023-03-01T11:50:30;101429.99;;;20.75;19.27
77897;BME280;67092;64.282;21.056;2023-03-01T11:53:01;101425.92;;;20.68;19.32
77897;BME280;67092;64.282;21.056;2023-03-01T11:55:26;101428.03;;;20.38;19.75
77897;BME280;67092;64.282;21.056;2023-03-01T11:57:54;101430.12;;;21.11;19.19
77897;BME280;67092;64.282;21.056;2023-03-01T12:00:21;101431.52;;;20.28;19.79
77897;BME280;67092;64.282;21.056;2023-03-01T12:05:11;101427.17;;;20.60;19.36
77897;BME280;67092;64.282;21.056;2023-03-01T12:07:31;101425.01;;;20.30;19.56
77897;BME280;67092;64.282;21.056;2023-03-01T12:10:02;101424.67;;;20.22;19.65
77897;BME280;67092;64.282;21.056;2023-03-01T12:12:31;101423.08;;;20.39;19.52
77897;BME280;67092;64.282;21.056;2023-03-01T12:14:53;101417.50;;;19.98;19.82
77897;BME280;67092;64.282;21.056;2023-03-01T12:17:25;101415.82;;;20.49;19.65
77897;BME280;67092;64.282;21.056;2023-03-01T12:19:47;101416.16;;;20.37;19.71
77897;BME280;67092;64.282;21.056;2023-03-01T12:22:10;101415.88;;;20.72;19.63
77897;BME280;67092;64.282;21.056;2023-03-01T12:24:33;101415.32;;;20.30;19.57
77897;BME280;67092;64.282;21.056;2023-03-01T12:27:02;101415.57;;;20.03;19.77
77897;BME280;67092;64.282;21.056;2023-03-01T12:29:24;101418.88;;;20.81;19.18
77897;BME280;67092;64.282;21.056;2023-03-01T12:32:00;101421.36;;;20.71;19.44
77897;BME280;67092;64.282;21.056;2023-03-01T12:34:18;101424.85;;;20.62;19.30
77897;BME280;67092;64.282;21.056;2023-03-01T12:36:48;101421.31;;;20.04;19.73